sensor_id;sensor_type;location;lat;lon;timestamp;temperature;humidity
1359;DHT22;673;48.098;14.422;2023-07-28T00:02:04;16.70;99.90
1359;DHT22;673;48.098;14.422;2023-07-28T00:04:31;16.60;99.90
1359;DHT22;673;48.098;14.422;2023-07-28T00:07:01;16.70;99.90
1359;DHT22;673;48.098;14.422;2023-07-28T00:09:28;16.70;99.90
1359;DHT22;673;48.098;14.422;2023-07-28T00:11:56;16.80;99.90
1359;DHT22;673;48.098;14.422;2023-07-28T00:14:23;16.80;99.90
1359;DHT22;673;48.098;14.422;2023-07-28T00:16:50;16.90;99.90
1359;DHT22;673;48.098;14.422;2023-07-28T00:19:19;17.00;99.90
1359;DHT22;673;48.098;14.422;2023-07-28T00:21:46;17.00;99.90
1359;DHT22;673;48.098;14.422;2023-07-28T00:24:14;17.00;99.90
1359;DHT22;673;48.098;14.422;2023-07-28T00:26:41;17.00;99.90
1359;DHT22;673;48.098;14.422;2023-07-28T00:29:08;17.00;99.90
1359;DHT22;673;48.098;14.422;2023-07-28T00:31:35;17.00;99.90
1359;DHT22;673;48.098;14.422;2023-07-28T00:34:02;17.00;99.90
1359;DHT22;673;48.098;14.422;2023-07-28T00:36:31;17.00;99.90
1359;DHT22;673;48.098;14.422;2023-07-28T00:38:58;17.00;99.90
1359;DHT22;673;48.098;14.422;2023-07-28T00:41:25;16.90;99.90
1359;DHT22;673;48.098;14.422;2023-07-28T00:43:52;16.90;99.90
1359;DHT22;673;48.098;14.422;2023-07-28T00:46:19;16.80;99.90
1359;DHT22;673;48.098;14.422;2023-07-28T00:48:46;16.80;99.90
1359;DHT22;673;48.098;14.422;2023-07-28T00:51:13;16.60;99.90
1359;DHT22;673;48.098;14.422;2023-07-28T00:53:42;16.50;99.90
1359;DHT22;673;48.098;14.422;2023-07-28T00:56:09;16.50;99.90
1359;DHT22;673;48.098;14.422;2023-07-28T00:58:37;16.40;99.90
1359;DHT22;673;48.098;14.422;2023-07-28T01:01:04;16.40;99.90
1359;DHT22;673;48.098;14.422;2023-07-28T01:03:31;16.50;99.90
1359;DHT22;673;48.098;14.422;2023-07-28T01:06:07;16.40;99.90
1359;DHT22;673;48.098;14.422;2023-07-28T01:08:42;16.30;99.90
1359;DHT22;673;48.098;14.422;2023-07-28T01:11:12;16.20;99.90
1359;DHT22;673;48.098;14.422;2023-07-28T01:13:39;16.10;99.90
1359;DHT22;673;48.098;14.422;2023-07-28T01:16:07;16.00;99.90
1359;DHT22;673;48.098;14.422;2023-07-28T01:18:35;16.00;99.90
1359;DHT22;673;48.098;14.422;2023-07-28T01:21:04;16.00;99.90
1359;DHT22;673;48.098;14.422;2023-07-28T01:23:38;16.10;99.90
1359;DHT22;673;48.098;14.422;2023-07-28T01:26:09;16.10;99.90
1359;DHT22;673;48.098;14.422;2023-07-28T01:28:39;16.20;99.90
1359;DHT22;673;48.098;14.422;2023-07-28T01:31:07;16.10;99.90
1359;DHT22;673;48.098;14.422;2023-07-28T01:33:35;16.00;99.90
1359;DHT22;673;48.098;14.422;2023-07-28T01:36:02;16.00;99.90
1359;DHT22;673;48.098;14.422;2023-07-28T01:38:29;16.00;99.90
1359;DHT22;673;48.098;14.422;2023-07-28T01:40:56;16.00;99.90
1359;DHT22;673;48.098;14.422;2023-07-28T01:43:23;15.80;99.90
1359;DHT22;673;48.098;14.422;2023-07-28T01:45:52;15.80;99.90
1359;DHT22;673;48.098;14.422;2023-07-28T01:48:18;15.70;99.90
1359;DHT22;673;48.098;14.422;2023-07-28T01:50:45;15.70;99.90
1359;DHT22;673;48.098;14.422;2023-07-28T01:53:12;15.50;99.90
1359;DHT22;673;48.098;14.422;2023-07-28T01:55:39;15.40;99.90
1359;DHT22;673;48.098;14.422;2023-07-28T01:58:06;15.20;99.90
1359;DHT22;673;48.098;14.422;2023-07-28T02:00:33;15.10;99.90
1359;DHT22;673;48.098;14.422;2023-07-28T02:03:01;15.00;99.90
1359;DHT22;673;48.098;14.422;2023-07-28T02:05:29;14.90;99.90
1359;DHT22;673;48.098;14.422;2023-07-28T02:07:56;14.90;99.90
1359;DHT22;673;48.098;14.422;2023-07-28T02:10:23;14.90;99.90
1359;DHT22;673;48.098;14.422;2023-07-28T02:12:50;15.00;99.90
1359;DHT22;673;48.098;14.422;2023-07-28T02:15:18;15.00;99.90
1359;DHT22;673;48.098;14.422;2023-07-28T02:17:45;14.90;99.90
1359;DHT22;673;48.098;14.422;2023-07-28T02:20:13;14.90;99.90
1359;DHT22;673;48.098;14.422;2023-07-28T02:22:41;14.90;99.90
1359;DHT22;673;48.098;14.422;2023-07-28T02:25:09;14.80;99.90
1359;DHT22;673;48.098;14.422;2023-07-28T02:27:36;14.80;99.90
1359;DHT22;673;48.098;14.422;2023-07-28T02:30:04;14.80;99.90
1359;DHT22;673;48.098;14.422;2023-07-28T02:32:31;14.80;99.90
1359;DHT22;673;48.098;14.422;2023-07-28T02:34:58;14.90;99.90
1359;DHT22;673;48.098;14.422;2023-07-28T02:37:27;15.00;99.90
1359;DHT22;673;48.098;14.422;2023-07-28T02:39:54;15.00;99.90
1359;DHT22;673;48.098;14.422;2023-07-28T02:42:21;15.00;99.90
1359;DHT22;673;48.098;14.422;2023-07-28T02:44:49;15.00;99.90
1359;DHT22;673;48.098;14.422;2023-07-28T02:47:16;15.00;99.90
1359;DHT22;673;48.098;14.422;2023-07-28T02:49:43;14.90;99.90
1359;DHT22;673;48.098;14.422;2023-07-28T02:52:10;14.80;99.90
1359;DHT22;673;48.098;14.422;2023-07-28T02:54:38;14.80;99.90
1359;DHT22;673;48.098;14.422;2023-07-28T02:57:05;14.80;99.90
1359;DHT22;673;48.098;14.422;2023-07-28T02:59:32;14.70;99.90
1359;DHT22;673;48.098;14.422;2023-07-28T03:01:59;14.60;99.90
1359;DHT22;673;48.098;14.422;2023-07-28T03:04:26;14.60;99.90
1359;DHT22;673;48.098;14.422;2023-07-28T03:06:53;14.60;99.90
1359;DHT22;673;48.098;14.422;2023-07-28T03:09:20;14.60;99.90
1359;DHT22;673;48.098;14.422;2023-07-28T03:11:48;14.50;99.90
1359;DHT22;673;48.098;14.422;2023-07-28T03:14:15;14.50;99.90
1359;DHT22;673;48.098;14.422;2023-07-28T03:16:42;14.50;99.90
1359;DHT22;673;48.098;14.422;2023-07-28T03:19:09;14.40;99.90
1359;DHT22;673;48.098;14.422;2023-07-28T03:21:36;14.30;99.90
1359;DHT22;673;48.098;14.422;2023-07-28T03:24:04;14.30;99.90
1359;DHT22;673;48.098;14.422;2023-07-28T03:26:31;14.30;99.90
1359;DHT22;673;48.098;14.422;2023-07-28T03:28:59;14.20;99.90
1359;DHT22;673;48.098;14.422;2023-07-28T03:31:26;14.30;99.90
1359;DHT22;673;48.098;14.422;2023-07-28T03:33:57;14.20;99.90
1359;DHT22;673;48.098;14.422;2023-07-28T03:36:24;14.20;99.90
1359;DHT22;673;48.098;14.422;2023-07-28T03:38:52;14.30;99.90
1359;DHT22;673;48.098;14.422;2023-07-28T03:41:19;14.30;99.90
1359;DHT22;673;48.098;14.422;2023-07-28T03:43:46;14.40;99.90
1359;DHT22;673;48.098;14.422;2023-07-28T03:46:15;14.30;99.90
1359;DHT22;673;48.098;14.422;2023-07-28T03:48:42;14.40;99.90
1359;DHT22;673;48.098;14.422;2023-07-28T03:51:08;14.30;99.90
1359;DHT22;673;48.098;14.422;2023-07-28T03:53:35;14.50;99.90
1359;DHT22;673;48.098;14.422;2023-07-28T03:56:03;14.50;99.90
1359;DHT22;673;48.098;14.422;2023-07-28T03:58:30;14.50;99.90
1359;DHT22;673;48.098;14.422;2023-07-28T04:00:57;14.50;99.90
1359;DHT22;673;48.098;14.422;2023-07-28T04:03:25;14.60;99.90
1359;DHT22;673;48.098;14.422;2023-07-28T04:05:52;14.50;99.90
1359;DHT22;673;48.098;14.422;2023-07-28T04:08:19;14.40;99.90
1359;DHT22;673;48.098;14.422;2023-07-28T04:10:46;14.50;99.90
1359;DHT22;673;48.098;14.422;2023-07-28T04:13:13;14.40;99.90
1359;DHT22;673;48.098;14.422;2023-07-28T04:15:40;14.60;99.90
1359;DHT22;673;48.098;14.422;2023-07-28T04:18:07;14.50;99.90
1359;DHT22;673;48.098;14.422;2023-07-28T04:20:35;14.60;99.90
1359;DHT22;673;48.098;14.422;2023-07-28T04:23:02;14.80;99.90
1359;DHT22;673;48.098;14.422;2023-07-28T04:25:29;14.90;99.90
1359;DHT22;673;48.098;14.422;2023-07-28T04:27:56;14.80;99.90
1359;DHT22;673;48.098;14.422;2023-07-28T04:30:23;14.80;99.90
1359;DHT22;673;48.098;14.422;2023-07-28T04:32:50;14.80;99.90
1359;DHT22;673;48.098;14.422;2023-07-28T04:35:17;15.00;99.90
1359;DHT22;673;48.098;14.422;2023-07-28T04:37:45;15.10;99.90
1359;DHT22;673;48.098;14.422;2023-07-28T04:40:12;15.20;99.90
1359;DHT22;673;48.098;14.422;2023-07-28T04:42:39;15.40;99.90
1359;DHT22;673;48.098;14.422;2023-07-28T04:45:07;15.50;99.90
1359;DHT22;673;48.098;14.422;2023-07-28T04:47:34;15.50;99.90
1359;DHT22;673;48.098;14.422;2023-07-28T04:50:01;15.60;99.90
1359;DHT22;673;48.098;14.422;2023-07-28T04:52:28;15.50;99.90
1359;DHT22;673;48.098;14.422;2023-07-28T04:54:56;15.60;99.90
1359;DHT22;673;48.098;14.422;2023-07-28T04:57:23;15.60;99.90
1359;DHT22;673;48.098;14.422;2023-07-28T04:59:50;15.80;99.90
1359;DHT22;673;48.098;14.422;2023-07-28T05:02:18;15.90;99.90
1359;DHT22;673;48.098;14.422;2023-07-28T05:04:45;15.90;99.90
1359;DHT22;673;48.098;14.422;2023-07-28T05:07:12;16.10;99.90
1359;DHT22;673;48.098;14.422;2023-07-28T05:09:38;16.30;99.90
1359;DHT22;673;48.098;14.422;2023-07-28T05:12:07;16.50;99.90
1359;DHT22;673;48.098;14.422;2023-07-28T05:14:35;16.50;99.90
1359;DHT22;673;48.098;14.422;2023-07-28T05:17:02;16.70;99.90
1359;DHT22;673;48.098;14.422;2023-07-28T05:19:29;16.80;99.90
1359;DHT22;673;48.098;14.422;2023-07-28T05:21:56;17.00;99.90
1359;DHT22;673;48.098;14.422;2023-07-28T05:24:23;17.00;99.90
1359;DHT22;673;48.098;14.422;2023-07-28T05:26:50;17.20;99.90
1359;DHT22;673;48.098;14.422;2023-07-28T05:29:18;17.40;99.90
1359;DHT22;673;48.098;14.422;2023-07-28T05:31:45;17.40;99.90
1359;DHT22;673;48.098;14.422;2023-07-28T05:34:12;17.40;99.90
1359;DHT22;673;48.098;14.422;2023-07-28T05:36:40;17.50;99.90
1359;DHT22;673;48.098;14.422;2023-07-28T05:39:07;17.60;99.90
1359;DHT22;673;48.098;14.422;2023-07-28T05:41:33;17.80;99.90
1359;DHT22;673;48.098;14.422;2023-07-28T05:44:00;17.90;99.90
1359;DHT22;673;48.098;14.422;2023-07-28T05:46:29;18.10;99.90
1359;DHT22;673;48.098;14.422;2023-07-28T05:48:57;18.20;99.90
1359;DHT22;673;48.098;14.422;2023-07-28T05:51:24;18.30;99.90
1359;DHT22;673;48.098;14.422;2023-07-28T05:53:51;18.50;99.90
1359;DHT22;673;48.098;14.422;2023-07-28T05:56:18;18.70;99.90
1359;DHT22;673;48.098;14.422;2023-07-28T05:58:45;18.80;99.90
1359;DHT22;673;48.098;14.422;2023-07-28T06:01:12;19.00;99.90
1359;DHT22;673;48.098;14.422;2023-07-28T06:03:41;19.10;99.90
1359;DHT22;673;48.098;14.422;2023-07-28T06:06:07;19.30;99.90
1359;DHT22;673;48.098;14.422;2023-07-28T06:08:34;19.40;99.90
1359;DHT22;673;48.098;14.422;2023-07-28T06:11:03;19.50;99.90
1359;DHT22;673;48.098;14.422;2023-07-28T06:13:30;19.60;99.90
1359;DHT22;673;48.098;14.422;2023-07-28T06:15:57;19.60;99.90
1359;DHT22;673;48.098;14.422;2023-07-28T06:18:26;19.60;99.90
1359;DHT22;673;48.098;14.422;2023-07-28T06:20:55;19.40;99.90
1359;DHT22;673;48.098;14.422;2023-07-28T06:23:22;19.10;99.90
1359;DHT22;673;48.098;14.422;2023-07-28T06:25:49;19.10;99.90
1359;DHT22;673;48.098;14.422;2023-07-28T06:28:16;19.30;99.90
1359;DHT22;673;48.098;14.422;2023-07-28T06:30:43;19.30;99.90
1359;DHT22;673;48.098;14.422;2023-07-28T06:33:10;19.70;99.90
1359;DHT22;673;48.098;14.422;2023-07-28T06:35:38;20.00;99.90
1359;DHT22;673;48.098;14.422;2023-07-28T06:38:06;20.00;99.90
1359;DHT22;673;48.098;14.422;2023-07-28T06:40:33;20.40;99.90
1359;DHT22;673;48.098;14.422;2023-07-28T06:43:00;20.40;99.90
1359;DHT22;673;48.098;14.422;2023-07-28T06:45:27;20.60;99.90
1359;DHT22;673;48.098;14.422;2023-07-28T06:47:54;20.90;99.90
1359;DHT22;673;48.098;14.422;2023-07-28T06:50:21;20.90;99.90
1359;DHT22;673;48.098;14.422;2023-07-28T06:52:48;20.50;99.90
1359;DHT22;673;48.098;14.422;2023-07-28T06:55:17;20.50;99.90
1359;DHT22;673;48.098;14.422;2023-07-28T06:57:44;20.50;99.90
1359;DHT22;673;48.098;14.422;2023-07-28T07:00:12;20.50;99.90
1359;DHT22;673;48.098;14.422;2023-07-28T07:02:40;20.50;99.90
1359;DHT22;673;48.098;14.422;2023-07-28T07:05:07;20.60;99.90
1359;DHT22;673;48.098;14.422;2023-07-28T07:07:34;20.70;99.90
1359;DHT22;673;48.098;14.422;2023-07-28T07:10:02;20.80;99.90
1359;DHT22;673;48.098;14.422;2023-07-28T07:12:31;20.90;99.90
1359;DHT22;673;48.098;14.422;2023-07-28T07:14:58;21.00;99.90
1359;DHT22;673;48.098;14.422;2023-07-28T07:17:25;21.30;99.90
1359;DHT22;673;48.098;14.422;2023-07-28T07:19:52;21.30;99.90
1359;DHT22;673;48.098;14.422;2023-07-28T07:22:19;21.60;99.90
1359;DHT22;673;48.098;14.422;2023-07-28T07:24:45;21.30;99.90
1359;DHT22;673;48.098;14.422;2023-07-28T07:27:13;21.70;99.90
1359;DHT22;673;48.098;14.422;2023-07-28T07:29:41;21.80;99.90
1359;DHT22;673;48.098;14.422;2023-07-28T07:32:08;21.80;99.90
1359;DHT22;673;48.098;14.422;2023-07-28T07:34:36;21.70;99.90
1359;DHT22;673;48.098;14.422;2023-07-28T07:37:04;21.60;99.90
1359;DHT22;673;48.098;14.422;2023-07-28T07:39:31;21.80;99.90
1359;DHT22;673;48.098;14.422;2023-07-28T07:41:59;21.90;99.90
1359;DHT22;673;48.098;14.422;2023-07-28T07:44:27;21.90;99.90
1359;DHT22;673;48.098;14.422;2023-07-28T07:46:55;22.50;99.90
1359;DHT22;673;48.098;14.422;2023-07-28T07:49:23;22.30;99.90
1359;DHT22;673;48.098;14.422;2023-07-28T07:51:50;22.40;99.90
1359;DHT22;673;48.098;14.422;2023-07-28T07:54:17;22.30;99.90
1359;DHT22;673;48.098;14.422;2023-07-28T07:56:44;22.40;99.90
1359;DHT22;673;48.098;14.422;2023-07-28T07:59:12;22.30;99.90
1359;DHT22;673;48.098;14.422;2023-07-28T08:01:39;22.60;99.90
1359;DHT22;673;48.098;14.422;2023-07-28T08:04:08;22.90;99.90
1359;DHT22;673;48.098;14.422;2023-07-28T08:06:35;23.30;99.90
1359;DHT22;673;48.098;14.422;2023-07-28T08:09:02;23.50;99.90
1359;DHT22;673;48.098;14.422;2023-07-28T08:11:29;23.10;99.90
1359;DHT22;673;48.098;14.422;2023-07-28T08:13:56;22.40;99.90
1359;DHT22;673;48.098;14.422;2023-07-28T08:16:23;22.10;99.90
1359;DHT22;673;48.098;14.422;2023-07-28T08:18:50;21.90;99.90
1359;DHT22;673;48.098;14.422;2023-07-28T08:21:19;21.70;99.90
1359;DHT22;673;48.098;14.422;2023-07-28T08:23:46;21.70;99.90
1359;DHT22;673;48.098;14.422;2023-07-28T08:26:13;21.70;99.90
1359;DHT22;673;48.098;14.422;2023-07-28T08:28:40;21.60;99.90
1359;DHT22;673;48.098;14.422;2023-07-28T08:31:07;21.50;99.90
1359;DHT22;673;48.098;14.422;2023-07-28T08:33:34;21.50;99.90
1359;DHT22;673;48.098;14.422;2023-07-28T08:36:01;21.60;99.90
1359;DHT22;673;48.098;14.422;2023-07-28T08:38:30;21.90;99.90
1359;DHT22;673;48.098;14.422;2023-07-28T08:40:57;22.00;99.90
1359;DHT22;673;48.098;14.422;2023-07-28T08:43:25;22.00;99.90
1359;DHT22;673;48.098;14.422;2023-07-28T08:45:53;21.60;99.90
1359;DHT22;673;48.098;14.422;2023-07-28T08:48:20;21.50;99.90
1359;DHT22;673;48.098;14.422;2023-07-28T08:50:47;21.40;99.90
1359;DHT22;673;48.098;14.422;2023-07-28T08:53:14;21.30;99.90
1359;DHT22;673;48.098;14.422;2023-07-28T08:55:43;21.00;99.90
1359;DHT22;673;48.098;14.422;2023-07-28T08:58:14;20.90;99.90
1359;DHT22;673;48.098;14.422;2023-07-28T09:00:41;20.90;99.90
1359;DHT22;673;48.098;14.422;2023-07-28T09:03:09;21.00;99.90
1359;DHT22;673;48.098;14.422;2023-07-28T09:05:36;21.30;99.90
1359;DHT22;673;48.098;14.422;2023-07-28T09:08:06;21.50;99.90
1359;DHT22;673;48.098;14.422;2023-07-28T09:10:41;21.60;99.90
1359;DHT22;673;48.098;14.422;2023-07-28T09:13:11;21.60;99.90
1359;DHT22;673;48.098;14.422;2023-07-28T09:15:38;21.60;99.90
1359;DHT22;673;48.098;14.422;2023-07-28T09:18:07;21.70;99.90
1359;DHT22;673;48.098;14.422;2023-07-28T09:20:36;21.70;99.90
1359;DHT22;673;48.098;14.422;2023-07-28T09:23:03;21.80;99.90
1359;DHT22;673;48.098;14.422;2023-07-28T09:25:31;21.70;99.90
1359;DHT22;673;48.098;14.422;2023-07-28T09:27:59;21.80;99.90
1359;DHT22;673;48.098;14.422;2023-07-28T09:30:44;21.80;99.90
1359;DHT22;673;48.098;14.422;2023-07-28T09:33:11;21.40;99.90
1359;DHT22;673;48.098;14.422;2023-07-28T09:35:47;21.20;99.90
1359;DHT22;673;48.098;14.422;2023-07-28T09:38:15;21.20;99.90
1359;DHT22;673;48.098;14.422;2023-07-28T09:40:43;21.10;99.90
1359;DHT22;673;48.098;14.422;2023-07-28T09:43:11;21.40;99.90
1359;DHT22;673;48.098;14.422;2023-07-28T09:45:40;22.20;99.90
1359;DHT22;673;48.098;14.422;2023-07-28T09:48:10;22.10;99.90
1359;DHT22;673;48.098;14.422;2023-07-28T09:50:39;21.90;99.90
1359;DHT22;673;48.098;14.422;2023-07-28T09:53:09;22.30;99.90
1359;DHT22;673;48.098;14.422;2023-07-28T09:55:39;22.70;99.90
1359;DHT22;673;48.098;14.422;2023-07-28T09:58:09;23.10;99.90
1359;DHT22;673;48.098;14.422;2023-07-28T10:00:37;23.70;99.90
1359;DHT22;673;48.098;14.422;2023-07-28T10:03:06;23.90;99.90
1359;DHT22;673;48.098;14.422;2023-07-28T10:05:33;24.40;99.90
1359;DHT22;673;48.098;14.422;2023-07-28T10:08:01;24.60;99.90
1359;DHT22;673;48.098;14.422;2023-07-28T10:10:30;24.70;99.90
1359;DHT22;673;48.098;14.422;2023-07-28T10:12:58;25.00;99.90
1359;DHT22;673;48.098;14.422;2023-07-28T10:15:28;24.60;99.90
1359;DHT22;673;48.098;14.422;2023-07-28T10:17:57;24.40;99.90
1359;DHT22;673;48.098;14.422;2023-07-28T10:20:31;24.30;99.90
1359;DHT22;673;48.098;14.422;2023-07-28T10:23:05;24.70;99.90
1359;DHT22;673;48.098;14.422;2023-07-28T10:25:35;25.10;99.90
1359;DHT22;673;48.098;14.422;2023-07-28T10:28:02;25.10;99.90
1359;DHT22;673;48.098;14.422;2023-07-28T10:30:35;25.30;99.90
1359;DHT22;673;48.098;14.422;2023-07-28T10:33:04;25.20;99.90
1359;DHT22;673;48.098;14.422;2023-07-28T10:35:32;25.20;99.90
1359;DHT22;673;48.098;14.422;2023-07-28T10:38:30;25.30;99.90
1359;DHT22;673;48.098;14.422;2023-07-28T10:41:08;25.40;99.90
1359;DHT22;673;48.098;14.422;2023-07-28T10:43:36;25.60;99.90
1359;DHT22;673;48.098;14.422;2023-07-28T10:46:05;25.90;99.90
1359;DHT22;673;48.098;14.422;2023-07-28T10:48:33;26.00;99.90
1359;DHT22;673;48.098;14.422;2023-07-28T10:51:02;26.00;99.90
1359;DHT22;673;48.098;14.422;2023-07-28T10:53:29;26.00;99.90
1359;DHT22;673;48.098;14.422;2023-07-28T10:55:58;26.20;99.90
1359;DHT22;673;48.098;14.422;2023-07-28T10:58:25;26.50;98.90
1359;DHT22;673;48.098;14.422;2023-07-28T11:00:52;26.80;98.90
1359;DHT22;673;48.098;14.422;2023-07-28T11:03:19;26.90;96.70
1359;DHT22;673;48.098;14.422;2023-07-28T11:05:48;26.60;97.70
1359;DHT22;673;48.098;14.422;2023-07-28T11:08:17;26.40;98.60
1359;DHT22;673;48.098;14.422;2023-07-28T11:10:44;26.90;98.50
1359;DHT22;673;48.098;14.422;2023-07-28T11:13:12;27.10;97.80
1359;DHT22;673;48.098;14.422;2023-07-28T11:15:40;27.00;96.40
1359;DHT22;673;48.098;14.422;2023-07-28T11:18:07;26.60;95.50
1359;DHT22;673;48.098;14.422;2023-07-28T11:20:35;26.50;97.20
1359;DHT22;673;48.098;14.422;2023-07-28T11:23:03;26.60;95.90
1359;DHT22;673;48.098;14.422;2023-07-28T11:25:33;26.70;95.30
1359;DHT22;673;48.098;14.422;2023-07-28T11:28:02;27.20;94.80
1359;DHT22;673;48.098;14.422;2023-07-28T11:30:31;27.40;93.60
1359;DHT22;673;48.098;14.422;2023-07-28T11:32:58;27.10;94.00
1359;DHT22;673;48.098;14.422;2023-07-28T11:35:26;27.00;93.50
1359;DHT22;673;48.098;14.422;2023-07-28T11:37:53;27.40;93.50
1359;DHT22;673;48.098;14.422;2023-07-28T11:40:21;27.70;91.10
1359;DHT22;673;48.098;14.422;2023-07-28T11:42:54;27.60;92.30
1359;DHT22;673;48.098;14.422;2023-07-28T11:45:22;27.20;90.90
1359;DHT22;673;48.098;14.422;2023-07-28T11:47:56;26.60;91.80
1359;DHT22;673;48.098;14.422;2023-07-28T11:50:24;26.40;92.10
1359;DHT22;673;48.098;14.422;2023-07-28T11:52:51;26.50;91.70
1359;DHT22;673;48.098;14.422;2023-07-28T11:55:19;26.60;90.90
1359;DHT22;673;48.098;14.422;2023-07-28T11:57:48;26.70;91.40
1359;DHT22;673;48.098;14.422;2023-07-28T12:00:17;27.10;90.90
1359;DHT22;673;48.098;14.422;2023-07-28T12:02:44;27.00;90.40
1359;DHT22;673;48.098;14.422;2023-07-28T12:05:13;26.80;90.80
1359;DHT22;673;48.098;14.422;2023-07-28T12:07:40;26.80;89.30
1359;DHT22;673;48.098;14.422;2023-07-28T12:10:08;26.60;90.00
1359;DHT22;673;48.098;14.422;2023-07-28T12:12:43;26.50;90.30
1359;DHT22;673;48.098;14.422;2023-07-28T12:15:23;26.60;91.10
1359;DHT22;673;48.098;14.422;2023-07-28T12:18:07;26.50;91.00
1359;DHT22;673;48.098;14.422;2023-07-28T12:20:36;26.40;90.60
1359;DHT22;673;48.098;14.422;2023-07-28T12:23:03;26.20;90.90
1359;DHT22;673;48.098;14.422;2023-07-28T12:25:31;26.40;92.00
1359;DHT22;673;48.098;14.422;2023-07-28T12:27:58;26.30;92.50
1359;DHT22;673;48.098;14.422;2023-07-28T12:30:26;26.00;92.20
1359;DHT22;673;48.098;14.422;2023-07-28T12:32:53;26.00;91.70
1359;DHT22;673;48.098;14.422;2023-07-28T12:35:20;26.10;92.40
1359;DHT22;673;48.098;14.422;2023-07-28T12:37:49;26.00;91.10
1359;DHT22;673;48.098;14.422;2023-07-28T12:40:17;26.10;92.70
1359;DHT22;673;48.098;14.422;2023-07-28T12:42:44;26.20;91.20
1359;DHT22;673;48.098;14.422;2023-07-28T12:45:11;26.00;91.60
1359;DHT22;673;48.098;14.422;2023-07-28T12:47:40;25.90;92.40
1359;DHT22;673;48.098;14.422;2023-07-28T12:50:07;25.70;92.60
1359;DHT22;673;48.098;14.422;2023-07-28T12:52:35;25.60;92.20
1359;DHT22;673;48.098;14.422;2023-07-28T12:55:03;25.30;92.90
1359;DHT22;673;48.098;14.422;2023-07-28T12:57:30;25.20;93.70
1359;DHT22;673;48.098;14.422;2023-07-28T12:59:58;25.00;93.80
1359;DHT22;673;48.098;14.422;2023-07-28T13:02:25;25.00;94.00
1359;DHT22;673;48.098;14.422;2023-07-28T13:04:53;25.10;94.80
1359;DHT22;673;48.098;14.422;2023-07-28T13:07:20;25.20;94.60
1359;DHT22;673;48.098;14.422;2023-07-28T13:09:48;25.20;94.90
1359;DHT22;673;48.098;14.422;2023-07-28T13:12:15;25.30;95.40
1359;DHT22;673;48.098;14.422;2023-07-28T13:14:42;25.40;95.60
1359;DHT22;673;48.098;14.422;2023-07-28T13:17:09;25.50;95.10
1359;DHT22;673;48.098;14.422;2023-07-28T13:19:37;25.80;95.20
1359;DHT22;673;48.098;14.422;2023-07-28T13:22:06;25.70;94.70
1359;DHT22;673;48.098;14.422;2023-07-28T13:24:33;25.70;94.50
1359;DHT22;673;48.098;14.422;2023-07-28T13:27:00;25.80;94.10
1359;DHT22;673;48.098;14.422;2023-07-28T13:29:26;25.50;94.20
1359;DHT22;673;48.098;14.422;2023-07-28T13:31:58;25.50;94.40
1359;DHT22;673;48.098;14.422;2023-07-28T13:34:26;25.60;95.20
1359;DHT22;673;48.098;14.422;2023-07-28T13:36:53;25.60;95.50
1359;DHT22;673;48.098;14.422;2023-07-28T13:39:22;25.80;95.20
1359;DHT22;673;48.098;14.422;2023-07-28T13:41:49;25.80;95.40
1359;DHT22;673;48.098;14.422;2023-07-28T13:44:16;25.80;96.20
1359;DHT22;673;48.098;14.422;2023-07-28T13:46:43;25.70;95.30
1359;DHT22;673;48.098;14.422;2023-07-28T13:49:10;25.70;96.30
1359;DHT22;673;48.098;14.422;2023-07-28T13:51:37;25.70;96.10
1359;DHT22;673;48.098;14.422;2023-07-28T13:54:04;25.50;95.80
1359;DHT22;673;48.098;14.422;2023-07-28T13:56:32;25.40;96.70
1359;DHT22;673;48.098;14.422;2023-07-28T13:58:59;25.60;96.10
1359;DHT22;673;48.098;14.422;2023-07-28T14:01:26;25.40;96.00
1359;DHT22;673;48.098;14.422;2023-07-28T14:03:53;25.50;97.10
1359;DHT22;673;48.098;14.422;2023-07-28T14:06:20;25.40;96.10
1359;DHT22;673;48.098;14.422;2023-07-28T14:08:47;25.30;95.40
1359;DHT22;673;48.098;14.422;2023-07-28T14:11:14;25.40;96.20
1359;DHT22;673;48.098;14.422;2023-07-28T14:13:42;25.60;96.40
1359;DHT22;673;48.098;14.422;2023-07-28T14:16:09;25.90;94.90
1359;DHT22;673;48.098;14.422;2023-07-28T14:18:36;25.70;93.80
1359;DHT22;673;48.098;14.422;2023-07-28T14:21:03;25.70;95.30
1359;DHT22;673;48.098;14.422;2023-07-28T14:23:30;25.50;93.60
1359;DHT22;673;48.098;14.422;2023-07-28T14:25:57;25.50;94.10
1359;DHT22;673;48.098;14.422;2023-07-28T14:28:24;25.70;94.30
1359;DHT22;673;48.098;14.422;2023-07-28T14:30:53;26.00;94.20
1359;DHT22;673;48.098;14.422;2023-07-28T14:33:20;26.20;93.40
1359;DHT22;673;48.098;14.422;2023-07-28T14:35:48;26.10;92.90
1359;DHT22;673;48.098;14.422;2023-07-28T14:38:15;26.00;93.70
1359;DHT22;673;48.098;14.422;2023-07-28T14:40:43;26.30;94.30
1359;DHT22;673;48.098;14.422;2023-07-28T14:43:14;26.30;92.80
1359;DHT22;673;48.098;14.422;2023-07-28T14:45:41;26.10;92.90
1359;DHT22;673;48.098;14.422;2023-07-28T14:48:09;26.00;93.60
1359;DHT22;673;48.098;14.422;2023-07-28T14:50:36;25.90;93.70
1359;DHT22;673;48.098;14.422;2023-07-28T14:53:32;25.70;93.70
1359;DHT22;673;48.098;14.422;2023-07-28T14:55:59;25.60;95.70
1359;DHT22;673;48.098;14.422;2023-07-28T14:58:27;25.40;95.70
1359;DHT22;673;48.098;14.422;2023-07-28T15:00:54;25.20;95.40
1359;DHT22;673;48.098;14.422;2023-07-28T15:03:22;25.00;96.70
1359;DHT22;673;48.098;14.422;2023-07-28T15:05:49;24.60;97.30
1359;DHT22;673;48.098;14.422;2023-07-28T15:08:15;24.30;97.70
1359;DHT22;673;48.098;14.422;2023-07-28T15:10:44;24.00;98.70
1359;DHT22;673;48.098;14.422;2023-07-28T15:13:11;23.70;98.70
1359;DHT22;673;48.098;14.422;2023-07-28T15:15:38;23.40;99.50
1359;DHT22;673;48.098;14.422;2023-07-28T15:18:05;23.20;99.90
1359;DHT22;673;48.098;14.422;2023-07-28T15:20:33;23.10;99.90
1359;DHT22;673;48.098;14.422;2023-07-28T15:23:00;22.90;99.90
1359;DHT22;673;48.098;14.422;2023-07-28T15:25:27;22.80;99.90
1359;DHT22;673;48.098;14.422;2023-07-28T15:27:55;22.70;99.90
1359;DHT22;673;48.098;14.422;2023-07-28T15:30:22;22.60;99.90
1359;DHT22;673;48.098;14.422;2023-07-28T15:32:49;22.60;99.90
1359;DHT22;673;48.098;14.422;2023-07-28T15:35:16;22.70;99.90
1359;DHT22;673;48.098;14.422;2023-07-28T15:37:44;22.80;99.90
1359;DHT22;673;48.098;14.422;2023-07-28T15:40:11;22.90;99.90
1359;DHT22;673;48.098;14.422;2023-07-28T15:42:38;22.90;99.90
1359;DHT22;673;48.098;14.422;2023-07-28T15:45:07;22.90;99.90
1359;DHT22;673;48.098;14.422;2023-07-28T15:47:34;22.80;99.90
1359;DHT22;673;48.098;14.422;2023-07-28T15:50:02;22.90;99.90
1359;DHT22;673;48.098;14.422;2023-07-28T15:52:30;22.80;99.90
1359;DHT22;673;48.098;14.422;2023-07-28T15:54:56;22.80;99.90
1359;DHT22;673;48.098;14.422;2023-07-28T15:57:23;22.80;99.90
1359;DHT22;673;48.098;14.422;2023-07-28T15:59:50;22.80;99.90
1359;DHT22;673;48.098;14.422;2023-07-28T16:02:19;22.80;99.90
1359;DHT22;673;48.098;14.422;2023-07-28T16:04:45;22.90;99.90
1359;DHT22;673;48.098;14.422;2023-07-28T16:07:12;22.90;99.90